Time;durP1;ratioP1;P1;durP2;ratioP2;P2;SDS_P1;SDS_P2;PMS_P1;PMS_P2;Temp;Humidity;BMP_temperature;BMP_pressure;BME280_temperature;BME280_humidity;BME280_pressure;Samples;Min_cycle;Max_cycle;Signal;HPM_P1;HPM_P2
2022/10/12 09:51:37;;;;;;;;;23.33;22.33;;;;;19.86;47.10;101891.78;5111856;27;45435;-69
2022/10/12 09:54:04;;;;;;;;;30.33;25.67;;;;;20.29;45.61;101886.53;5076391;27;45444;-67
2022/10/12 09:56:39;;;;;;;;;26.67;24.67;;;;;20.80;45.54;101884.63;5088531;27;45358;-67
2022/10/12 09:59:27;;;;;;;;;35.33;29.67;;;;;21.18;44.26;101889.94;5089560;27;45353;-67
2022/10/12 10:02:12;;;;;;;;;37.67;31.67;;;;;21.75;43.19;101893.00;5069481;27;48241;-67
2022/10/12 10:04:38;;;;;;;;;29.33;26.00;;;;;22.54;41.72;101899.72;5070170;27;45468;-68
2022/10/12 10:07:26;;;;;;;;;22.67;21.33;;;;;25.01;38.12;101879.63;5070156;27;45547;-68
2022/10/12 10:10:22;;;;;;;;;20.00;18.00;;;;;26.93;34.67;101874.75;5070346;27;45496;-68
2022/10/12 10:12:53;;;;;;;;;30.00;28.00;;;;;27.91;32.98;101877.03;5071804;27;46663;-67
2022/10/12 10:15:32;;;;;;;;;30.00;27.00;;;;;29.68;29.71;101850.88;5082596;27;45488;-67
2022/10/12 10:18:01;;;;;;;;;27.33;20.00;;;;;29.27;30.08;101854.22;5072613;27;45847;-68
2022/10/12 10:20:41;;;;;;;;;34.00;26.33;;;;;27.75;32.10;101870.69;5070752;28;45345;-71
2022/10/12 10:23:34;;;;;;;;;27.00;23.67;;;;;27.12;32.83;101872.00;5074084;27;46264;-69
2022/10/12 10:26:07;;;;;;;;;26.67;25.67;;;;;26.40;33.85;101862.03;5070576;27;45549;-69
2022/10/12 10:28:38;;;;;;;;;35.67;28.00;;;;;25.55;34.92;101865.75;5087477;27;45343;-68
2022/10/12 10:31:15;;;;;;;;;26.00;24.33;;;;;25.54;34.93;101868.53;5079583;27;45333;-69
2022/10/12 10:33:42;;;;;;;;;28.00;26.33;;;;;26.16;34.46;101861.34;5074367;27;45429;-69
2022/10/12 10:36:19;;;;;;;;;27.67;25.67;;;;;26.21;34.31;101845.91;5074212;27;45480;-69
2022/10/12 10:39:06;;;;;;;;;28.67;26.00;;;;;26.52;34.05;101869.50;5075380;27;45512;-67
2022/10/12 10:41:39;;;;;;;;;29.33;24.67;;;;;27.70;32.34;101865.53;5093155;27;45407;-67
2022/10/12 10:44:29;;;;;;;;;19.33;18.00;;;;;28.88;30.74;101859.13;5088572;27;46801;-70
2022/10/12 10:47:01;;;;;;;;;23.00;23.00;;;;;28.31;31.49;101862.28;5089870;27;45445;-69
2022/10/12 10:49:32;;;;;;;;;25.00;19.67;;;;;29.04;31.22;101855.53;5090177;27;45605;-68
2022/10/12 10:52:00;;;;;;;;;29.00;28.00;;;;;28.98;30.32;101851.38;5094569;27;45628;-65
2022/10/12 10:54:29;;;;;;;;;28.67;20.33;;;;;27.92;31.72;101809.63;5094002;27;46055;-67
2022/10/12 10:57:15;;;;;;;;;19.33;16.67;;;;;29.10;31.40;101841.75;5085745;27;45516;-67
2022/10/12 10:59:46;;;;;;;;;17.75;15.25;;;;;29.80;30.37;101844.72;5106054;27;45364;-70
2022/10/12 11:02:24;;;;;;;;;25.00;21.33;;;;;29.34;29.37;101848.38;5112052;27;45426;-67
2022/10/12 11:05:00;;;;;;;;;18.67;17.00;;;;;30.45;29.10;101835.31;5066454;27;47086;-67
2022/10/12 11:07:34;;;;;;;;;26.33;19.67;;;;;31.14;27.76;101845.19;5063712;27;45556;-66
2022/10/12 11:10:05;;;;;;;;;24.33;22.00;;;;;29.82;29.06;101847.34;5087898;27;45374;-68
2022/10/12 11:12:36;;;;;;;;;23.00;19.00;;;;;28.77;30.51;101840.00;5055168;27;45400;-68
2022/10/12 11:15:37;;;;;;;;;24.00;22.67;;;;;28.57;31.18;101843.84;5055102;27;45496;-68
2022/10/12 11:18:17;;;;;;;;;24.00;22.33;;;;;28.07;31.49;101839.38;5053137;28;45643;-68
2022/10/12 11:20:50;;;;;;;;;22.67;21.00;;;;;28.70;30.58;101844.00;5054660;28;45359;-69
2022/10/12 11:23:26;;;;;;;;;20.00;17.67;;;;;27.52;32.06;101850.34;5063827;27;45379;-69
2022/10/12 11:26:14;;;;;;;;;24.00;20.33;;;;;26.55;33.87;101828.22;5066419;27;46202;-65
2022/10/12 11:28:41;;;;;;;;;18.33;17.00;;;;;26.22;33.81;101826.19;5100225;27;45679;-69
2022/10/12 11:31:18;;;;;;;;;21.00;17.33;;;;;25.26;35.92;101828.59;5059911;27;45645;-67
2022/10/12 11:33:45;;;;;;;;;17.00;15.00;;;;;24.75;36.68;101833.34;5064637;27;45695;-66
2022/10/12 11:36:28;;;;;;;;;19.67;19.33;;;;;24.18;37.72;101827.47;5062065;28;46199;-68
2022/10/12 11:39:07;;;;;;;;;19.00;16.33;;;;;23.75;38.89;101828.16;5062314;27;45606;-65
2022/10/12 11:41:51;;;;;;;;;14.33;14.33;;;;;23.48;39.61;101821.03;5062305;27;45520;-65
2022/10/12 11:44:25;;;;;;;;;14.33;13.00;;;;;23.28;39.41;101828.88;5068970;27;45974;-67
2022/10/12 11:47:02;;;;;;;;;16.33;16.33;;;;;22.78;40.34;101810.88;5063867;27;45867;-68
2022/10/12 11:49:56;;;;;;;;;18.33;17.33;;;;;22.34;41.67;101799.78;5064654;27;45538;-67
2022/10/12 11:52:35;;;;;;;;;20.00;15.00;;;;;22.04;41.87;101814.84;5062770;27;45832;-67
2022/10/12 11:55:29;;;;;;;;;13.00;12.67;;;;;21.98;41.89;101812.38;5069968;28;45582;-67
2022/10/12 11:57:59;;;;;;;;;11.67;10.00;;;;;21.71;42.09;101806.91;5069311;27;46303;-66
2022/10/12 12:00:33;;;;;;;;;8.00;8.00;;;;;21.75;42.10;101807.69;5057446;27;46515;-66
2022/10/12 12:03:31;;;;;;;;;14.00;13.00;;;;;21.53;42.62;101807.38;5066050;27;45415;-67
2022/10/12 12:06:29;;;;;;;;;18.33;17.33;;;;;20.99;44.17;101806.06;5087475;27;45393;-67
2022/10/12 12:09:17;;;;;;;;;12.33;11.67;;;;;20.89;44.42;101793.88;5059293;27;46797;-66
2022/10/12 12:11:44;;;;;;;;;12.33;10.33;;;;;20.99;44.17;101775.88;5084175;27;45559;-68
2022/10/12 12:14:25;;;;;;;;;10.33;10.33;;;;;21.27;44.09;101795.59;5066153;27;45446;-67
2022/10/12 12:17:22;;;;;;;;;14.33;12.00;;;;;21.38;43.82;101792.66;5068407;28;45663;-68
2022/10/12 12:19:56;;;;;;;;;11.67;11.00;;;;;21.54;43.42;101796.66;5068039;28;45606;-67
2022/10/12 12:22:33;;;;;;;;;19.33;14.00;;;;;21.46;43.83;101785.34;5068257;27;45496;-67
2022/10/12 12:24:59;;;;;;;;;16.00;15.33;;;;;21.34;43.71;101770.53;5070231;27;45564;-67
2022/10/12 12:27:54;;;;;;;;;17.00;14.67;;;;;21.81;42.89;101773.72;5080693;27;45859;-67
2022/10/12 12:31:03;;;;;;;;;11.00;7.33;;;;;22.37;41.77;101764.09;5059597;27;46318;-67
2022/10/12 12:33:40;;;;;;;;;8.00;8.00;;;;;22.97;40.82;101754.16;5059700;27;46614;-68
2022/10/12 12:36:13;;;;;;;;;7.67;7.00;;;;;26.09;36.17;101745.31;5063514;28;45534;-67
2022/10/12 12:38:46;;;;;;;;;10.00;10.00;;;;;26.55;34.33;101744.94;5061626;28;45555;-68
2022/10/12 12:41:15;;;;;;;;;7.33;7.33;;;;;26.83;33.99;101758.75;5058418;27;46106;-68
2022/10/12 12:43:44;;;;;;;;;8.00;7.00;;;;;27.88;32.37;101766.78;5059629;27;45399;-69
2022/10/12 12:46:13;;;;;;;;;10.00;7.33;;;;;26.57;33.62;101753.78;5073466;27;45337;-66
2022/10/12 12:48:42;;;;;;;;;14.00;8.00;;;;;25.68;35.44;101756.13;5073160;27;45470;-69
2022/10/12 12:51:13;;;;;;;;;8.33;8.33;;;;;25.67;36.20;101751.69;5060960;27;45870;-68
2022/10/12 12:53:52;;;;;;;;;10.67;9.33;;;;;28.25;31.91;101729.75;5051489;27;45745;-66
2022/10/12 12:57:05;;;;;;;;;7.67;7.67;;;;;30.99;27.61;101737.97;5053443;27;45484;-68
2022/10/12 13:00:15;;;;;;;;;8.50;6.50;;;;;31.71;26.71;101742.94;5036383;28;45614;-67
2022/10/12 13:03:19;;;;;;;;;7.25;5.25;;;;;32.73;26.29;101740.84;5068151;27;46470;-69
2022/10/12 13:06:05;;;;;;;;;9.25;9.25;;;;;32.83;25.30;101734.69;5066102;28;45866;-68
2022/10/12 13:09:02;;;;;;;;;10.50;8.50;;;;;31.36;26.29;101735.44;5085192;27;45465;-70
2022/10/12 13:11:50;;;;;;;;;22.33;19.33;;;;;31.08;26.99;101736.50;5050829;28;45707;-69
2022/10/12 13:14:40;;;;;;;;;19.33;19.00;;;;;29.17;29.42;101737.91;5067832;27;46948;-70
2022/10/12 13:17:36;;;;;;;;;59.75;48.75;;;;;27.88;31.18;101746.16;5083343;27;45578;-70
2022/10/12 13:20:29;;;;;;;;;68.25;54.25;;;;;26.56;33.09;101758.31;5071931;27;45444;-70
2022/10/12 13:23:04;;;;;;;;;47.00;39.33;;;;;28.63;30.60;101750.97;5073570;27;45804;-69
2022/10/12 13:25:42;;;;;;;;;20.00;20.00;;;;;29.78;28.77;101730.53;5099835;27;45756;-68
2022/10/12 13:28:15;;;;;;;;;11.33;11.33;;;;;29.82;28.77;101740.19;5071600;27;45459;-70
2022/10/12 13:30:52;;;;;;;;;8.00;8.00;;;;;29.10;29.35;101745.50;5054391;28;45436;-68
2022/10/12 13:33:34;;;;;;;;;9.25;8.00;;;;;29.28;29.52;101750.72;5084441;27;45909;-69
2022/10/12 13:36:06;;;;;;;;;7.50;7.25;;;;;28.75;30.00;101759.19;5059041;28;45374;-68
2022/10/12 13:38:34;;;;;;;;;5.75;5.75;;;;;27.62;31.33;101735.88;5057742;28;45374;-68
2022/10/12 13:41:08;;;;;;;;;8.00;7.00;;;;;27.30;32.09;101748.38;5070684;28;45704;-68
2022/10/12 13:43:47;;;;;;;;;12.25;7.50;;;;;26.47;33.04;101731.84;5071477;28;45575;-70
2022/10/12 13:46:35;;;;;;;;;10.00;8.50;;;;;25.12;35.70;101746.03;5070754;28;46140;-70
2022/10/12 13:49:02;;;;;;;;;8.75;7.25;;;;;24.64;36.47;101744.50;5062710;28;45487;-65
2022/10/12 13:51:29;;;;;;;;;8.00;8.00;;;;;23.81;37.69;101745.88;5060893;27;45797;-71
2022/10/12 13:53:56;;;;;;;;;9.67;8.33;;;;;23.19;38.70;101725.81;5071524;27;45585;-69
2022/10/12 13:56:26;;;;;;;;;10.00;7.33;;;;;22.92;39.56;101724.94;5071703;27;46251;-68
2022/10/12 13:59:00;;;;;;;;;9.00;9.00;;;;;23.04;39.97;101740.59;5070767;27;45557;-68
2022/10/12 14:01:26;;;;;;;;;7.33;7.33;;;;;22.90;39.76;101721.47;5074423;28;45499;-68
2022/10/12 14:04:02;;;;;;;;;6.33;6.33;;;;;22.63;40.71;101740.13;5074475;27;45425;-69
2022/10/12 14:06:31;;;;;;;;;8.67;8.00;;;;;22.64;40.76;101727.66;5069675;27;47700;-68
2022/10/12 14:09:14;;;;;;;;;7.67;5.00;;;;;22.68;40.96;101731.94;5084680;28;45536;-69
2022/10/12 14:11:41;;;;;;;;;4.00;4.00;;;;;22.57;40.83;101723.44;5058683;28;45400;-69
2022/10/12 14:14:35;;;;;;;;;6.67;6.67;;;;;22.42;41.00;101727.47;5061122;27;45442;-67
2022/10/12 14:17:01;;;;;;;;;8.67;8.00;;;;;22.19;41.64;101730.84;5072666;28;46274;-66
2022/10/12 14:19:33;;;;;;;;;9.33;7.33;;;;;21.85;42.56;101737.16;5072502;28;45385;-68
2022/10/12 14:22:00;;;;;;;;;11.00;8.67;;;;;21.55;42.19;101729.13;5074931;28;45449;-68
2022/10/12 14:24:26;;;;;;;;;7.67;7.33;;;;;21.33;43.26;101709.28;5075735;27;45373;-69
2022/10/12 14:27:01;;;;;;;;;9.00;7.00;;;;;21.42;43.61;101724.19;5073261;27;46109;-68
2022/10/12 14:29:39;;;;;;;;;9.00;7.67;;;;;21.43;43.88;101733.91;5067132;27;45526;-67
2022/10/12 14:32:28;;;;;;;;;7.67;6.00;;;;;21.27;43.81;101720.13;5069779;27;45381;-69
2022/10/12 14:35:29;;;;;;;;;5.33;5.33;;;;;21.35;43.88;101728.75;5069014;27;45349;-70
2022/10/12 14:37:55;;;;;;;;;7.67;7.67;;;;;21.37;43.98;101735.78;5037217;27;46892;-68
2022/10/12 14:40:39;;;;;;;;;8.33;5.67;;;;;21.38;44.19;101723.38;5060361;27;45743;-69
2022/10/12 14:43:11;;;;;;;;;6.33;6.00;;;;;21.36;43.95;101718.06;5055888;27;45323;-70
2022/10/12 14:45:36;;;;;;;;;7.00;6.33;;;;;21.24;44.39;101704.22;5058306;27;46542;-68
2022/10/12 14:48:03;;;;;;;;;7.00;6.67;;;;;21.14;44.37;101709.78;5059074;27;45646;-68
2022/10/12 14:50:31;;;;;;;;;6.33;6.33;;;;;20.87;45.08;101684.75;5060465;27;45449;-67
2022/10/12 14:53:02;;;;;;;;;6.33;6.33;;;;;20.92;45.53;101713.91;5060960;27;45298;-68
2022/10/12 14:55:30;;;;;;;;;8.67;6.33;;;;;20.77;45.26;101703.66;5068498;27;45634;-68
2022/10/12 14:57:56;;;;;;;;;7.00;7.00;;;;;20.79;45.36;101712.50;5067015;27;46177;-67
2022/10/12 15:00:26;;;;;;;;;8.00;7.33;;;;;20.57;45.25;101702.34;5067116;27;45459;-68
2022/10/12 15:02:52;;;;;;;;;8.33;7.00;;;;;20.54;45.96;101713.03;5057323;27;45559;-67
2022/10/12 15:05:21;;;;;;;;;9.33;9.33;;;;;20.49;46.03;101715.81;5071742;27;45469;-67
2022/10/12 15:07:47;;;;;;;;;9.00;6.67;;;;;20.38;45.98;101682.38;5055877;27;46591;-68
2022/10/12 15:10:14;;;;;;;;;9.00;7.00;;;;;20.52;45.91;101704.22;5055579;27;45719;-68
2022/10/12 15:12:40;;;;;;;;;8.67;6.33;;;;;20.56;46.04;101705.06;5057033;28;45641;-68
2022/10/12 15:15:23;;;;;;;;;10.00;8.00;;;;;20.49;46.44;101709.63;5071569;27;45672;-68
2022/10/12 15:17:48;;;;;;;;;8.33;6.67;;;;;20.42;46.57;101700.03;5055333;27;45386;-68
2022/10/12 15:20:15;;;;;;;;;8.00;6.67;;;;;20.25;47.06;101685.34;5058549;27;45499;-67
2022/10/12 15:22:40;;;;;;;;;8.67;8.00;;;;;20.17;47.14;101694.38;5057162;27;45514;-65
2022/10/12 15:25:20;;;;;;;;;9.33;8.67;;;;;20.07;47.36;101675.09;5057575;27;45465;-67
2022/10/12 15:27:45;;;;;;;;;9.00;8.00;;;;;20.10;46.97;101675.06;5059980;27;45999;-67
2022/10/12 15:30:11;;;;;;;;;7.33;6.33;;;;;19.94;47.09;101653.25;5055799;27;45477;-65
2022/10/12 15:32:37;;;;;;;;;11.00;8.00;;;;;20.01;47.45;101676.13;5056429;28;45371;-67
2022/10/12 15:35:24;;;;;;;;;6.00;6.00;;;;;19.98;47.63;101677.97;5057748;27;45492;-67
2022/10/12 15:37:51;;;;;;;;;7.00;7.00;;;;;19.91;47.63;101678.13;5055807;27;45300;-67
2022/10/12 15:40:18;;;;;;;;;9.33;6.33;;;;;19.77;47.80;101660.72;5054675;28;45537;-67
2022/10/12 15:42:44;;;;;;;;;9.00;5.00;;;;;19.71;47.69;101667.03;5079959;27;45362;-67
2022/10/12 15:45:21;;;;;;;;;6.33;6.33;;;;;19.72;48.06;101676.78;5078401;27;45551;-67
2022/10/12 15:47:49;;;;;;;;;9.00;8.33;;;;;19.66;47.79;101663.56;5076347;28;47707;-68
2022/10/12 15:50:16;;;;;;;;;8.00;7.00;;;;;19.73;47.91;101667.88;5074943;28;45693;-66
2022/10/12 15:52:42;;;;;;;;;7.33;7.33;;;;;19.69;48.00;101652.91;5075665;28;45436;-67
2022/10/12 15:55:23;;;;;;;;;7.00;6.67;;;;;19.82;47.76;101669.47;5079262;28;45395;-67
2022/10/12 15:57:50;;;;;;;;;7.33;5.00;;;;;19.75;48.71;101660.75;5094574;27;45512;-66
2022/10/12 16:00:19;;;;;;;;;7.67;6.00;;;;;19.72;48.90;101660.81;5075609;28;45414;-68
2022/10/12 16:02:44;;;;;;;;;7.00;7.00;;;;;19.66;48.42;101652.94;5075624;28;45377;-67
2022/10/12 16:05:18;;;;;;;;;5.67;5.67;;;;;19.77;48.39;101658.06;5075371;28;45964;-67
2022/10/12 16:07:44;;;;;;;;;10.33;6.67;;;;;19.79;48.36;101649.16;5078374;28;45591;-66
2022/10/12 16:10:13;;;;;;;;;10.33;7.00;;;;;19.75;49.40;101654.56;5079329;28;45363;-67
2022/10/12 16:12:44;;;;;;;;;7.33;6.33;;;;;19.62;48.27;101624.66;5078165;27;45432;-66
2022/10/12 16:15:20;;;;;;;;;7.67;6.33;;;;;19.61;48.75;101623.81;5078070;27;45413;-66
2022/10/12 16:17:46;;;;;;;;;9.00;6.67;;;;;19.66;48.68;101631.69;5075707;28;45452;-66
2022/10/12 16:20:12;;;;;;;;;8.67;8.00;;;;;19.59;49.60;101630.06;5074805;28;45417;-66
2022/10/12 16:22:38;;;;;;;;;6.00;6.00;;;;;19.65;49.53;101641.44;5074347;28;45500;-67
2022/10/12 16:25:06;;;;;;;;;7.00;6.33;;;;;19.62;49.34;101636.19;5079084;27;45581;-66
2022/10/12 16:27:33;;;;;;;;;5.67;5.00;;;;;19.59;49.36;101630.06;5079171;28;45831;-68
2022/10/12 16:29:58;;;;;;;;;7.67;6.00;;;;;19.56;49.29;101651.38;5077619;28;45412;-66
2022/10/12 16:32:24;;;;;;;;;7.00;6.67;;;;;19.51;49.01;101650.63;5065946;28;45502;-68
2022/10/12 16:34:50;;;;;;;;;6.00;6.00;;;;;19.33;49.17;101634.13;5070790;28;45547;-68
2022/10/12 16:37:16;;;;;;;;;6.33;6.00;;;;;19.26;48.81;101624.53;5070559;28;46223;-68
2022/10/12 16:39:41;;;;;;;;;8.33;7.67;;;;;19.19;49.08;101631.72;5069352;28;45406;-67
2022/10/12 16:42:07;;;;;;;;;6.67;6.67;;;;;19.22;49.99;101644.97;5079123;27;45487;-68
2022/10/12 16:44:32;;;;;;;;;9.00;9.00;;;;;19.15;49.86;101640.69;5079591;28;45530;-67
2022/10/12 16:47:00;;;;;;;;;7.33;6.00;;;;;19.23;49.42;101662.66;5076127;27;45455;-70
2022/10/12 16:49:26;;;;;;;;;7.00;6.67;;;;;19.22;49.81;101667.97;5073079;28;45377;-68
2022/10/12 16:51:51;;;;;;;;;7.67;5.67;;;;;19.22;49.69;101665.31;5075241;27;45568;-69
2022/10/12 16:54:17;;;;;;;;;8.33;5.00;;;;;19.14;50.03;101661.94;5075641;27;45475;-68
2022/10/12 16:56:43;;;;;;;;;9.00;6.33;;;;;19.19;50.50;101679.53;5076878;28;46328;-67
2022/10/12 16:59:08;;;;;;;;;6.67;6.67;;;;;19.11;50.41;101664.66;5074094;27;45318;-69
2022/10/12 17:01:34;;;;;;;;;8.33;8.33;;;;;19.09;50.38;101663.81;5078171;28;45846;-69
2022/10/12 17:04:00;;;;;;;;;9.00;8.67;;;;;19.02;49.95;101660.41;5074785;28;45227;-69
2022/10/12 17:06:31;;;;;;;;;9.00;7.67;;;;;18.96;50.67;101661.41;5072743;28;46686;-68
2022/10/12 17:08:57;;;;;;;;;10.67;7.33;;;;;18.77;50.60;101646.69;5053226;28;45733;-67
2022/10/12 17:11:23;;;;;;;;;9.33;7.33;;;;;18.69;49.84;101643.25;5075757;28;45723;-67
2022/10/12 17:13:49;;;;;;;;;8.00;8.00;;;;;18.83;50.13;101647.44;5076543;27;45522;-68
2022/10/12 17:18:58;;;;;;;;;10.00;6.00;;;;;18.69;50.87;101657.41;5074443;28;45286;-69
2022/10/12 17:21:24;;;;;;;;;10.00;8.00;;;;;18.64;50.48;101649.50;5056245;28;45437;-67
2022/10/12 17:23:50;;;;;;;;;7.67;6.67;;;;;18.61;50.26;101649.56;5074586;27;45596;-67
2022/10/12 17:26:16;;;;;;;;;7.33;7.33;;;;;18.66;50.47;101673.38;5076879;28;45586;-67
2022/10/12 17:28:41;;;;;;;;;9.33;8.67;;;;;18.56;50.74;101667.34;5077017;28;45400;-68
2022/10/12 17:31:08;;;;;;;;;8.67;8.67;;;;;18.56;50.75;101671.78;5076885;28;45495;-70
2022/10/12 17:33:34;;;;;;;;;11.67;7.33;;;;;18.31;51.07;101626.19;5079062;28;45727;-68
2022/10/12 17:36:07;;;;;;;;;9.33;8.00;;;;;18.49;51.54;101649.78;5078306;28;46082;-67
2022/10/12 17:38:34;;;;;;;;;9.33;8.33;;;;;18.47;51.40;101658.66;5061076;27;45377;-67
2022/10/12 17:40:59;;;;;;;;;8.67;8.67;;;;;18.40;50.99;101652.59;5073934;28;45679;-69
2022/10/12 17:43:25;;;;;;;;;8.67;8.67;;;;;18.45;51.09;101669.28;5073773;27;45437;-68
2022/10/12 17:45:51;;;;;;;;;9.67;9.67;;;;;18.36;51.43;101669.44;5072047;28;48149;-67
2022/10/12 17:48:16;;;;;;;;;9.33;8.67;;;;;18.42;51.77;101687.91;5077143;28;45231;-68
2022/10/12 17:50:42;;;;;;;;;10.00;8.33;;;;;18.35;51.69;101679.19;5074025;28;45264;-70
2022/10/12 17:53:07;;;;;;;;;14.33;9.67;;;;;18.23;52.10;101668.75;5103532;27;44895;-68
2022/10/12 17:55:33;;;;;;;;;9.33;9.33;;;;;18.40;51.94;101689.72;5073631;28;45308;-67
2022/10/12 17:58:00;;;;;;;;;10.67;9.00;;;;;18.39;51.80;101695.94;5097759;27;45265;-69
2022/10/12 18:00:26;;;;;;;;;11.67;9.33;;;;;18.36;51.92;101691.53;5079330;27;45484;-70
2022/10/12 18:02:52;;;;;;;;;12.33;11.33;;;;;18.36;51.77;101688.00;5073562;28;45381;-67
2022/10/12 18:05:17;;;;;;;;;12.00;10.33;;;;;18.24;51.90;101675.81;5068975;28;46744;-70
2022/10/12 18:07:43;;;;;;;;;10.67;9.67;;;;;18.13;52.24;101659.19;5079330;28;45366;-68
2022/10/12 18:10:09;;;;;;;;;9.33;9.33;;;;;18.23;52.38;101685.53;5078028;28;45464;-69
2022/10/12 18:12:35;;;;;;;;;12.00;9.67;;;;;18.08;52.49;101667.22;5076492;28;45932;-67
2022/10/12 18:15:06;;;;;;;;;11.33;10.33;;;;;18.01;53.02;101655.81;5074948;28;46786;-69
2022/10/12 18:17:34;;;;;;;;;11.67;10.00;;;;;18.16;52.75;101690.97;5076457;28;45294;-69
2022/10/12 18:20:00;;;;;;;;;11.33;9.33;;;;;18.01;52.42;101663.78;5078935;28;45621;-69
2022/10/12 18:22:26;;;;;;;;;9.00;9.00;;;;;18.20;52.96;101695.31;5075247;28;45865;-68
2022/10/12 18:24:52;;;;;;;;;10.00;9.00;;;;;18.11;53.23;101676.91;5076718;27;45525;-70
2022/10/12 18:27:17;;;;;;;;;11.00;9.00;;;;;18.20;53.18;101697.97;5076549;27;45484;-68
2022/10/12 18:29:43;;;;;;;;;14.00;9.00;;;;;17.85;53.19;101632.19;5079745;27;45400;-69
2022/10/12 18:32:08;;;;;;;;;12.67;11.33;;;;;18.10;53.32;101686.59;5076863;27;45489;-69
2022/10/12 18:34:37;;;;;;;;;14.67;14.33;;;;;17.89;53.30;101657.75;5074446;27;45467;-68
2022/10/12 18:37:04;;;;;;;;;21.00;19.67;;;;;18.07;53.51;101696.38;5079382;27;45834;-68
2022/10/12 18:39:30;;;;;;;;;22.00;19.67;;;;;17.93;54.13;101686.84;5066399;28;45524;-70
2022/10/12 18:41:56;;;;;;;;;21.67;17.33;;;;;18.01;53.61;101695.56;5078725;27;45329;-67
2022/10/12 18:44:22;;;;;;;;;18.00;18.00;;;;;18.03;53.68;101687.59;5076855;27;46274;-68
2022/10/12 18:46:48;;;;;;;;;20.00;16.00;;;;;17.98;53.90;101692.94;5074617;27;45559;-69
2022/10/12 18:49:15;;;;;;;;;20.67;20.00;;;;;17.76;54.17;101665.81;5075715;27;45330;-68
2022/10/12 18:51:45;;;;;;;;;21.00;20.00;;;;;17.84;54.28;101686.94;5064177;27;45476;-68
2022/10/12 18:54:12;;;;;;;;;17.33;15.67;;;;;17.75;54.31;101677.34;5080123;27;46078;-67
2022/10/12 18:56:39;;;;;;;;;21.67;17.67;;;;;17.85;54.31;101696.69;5080522;27;45356;-68
2022/10/12 18:59:05;;;;;;;;;18.67;17.67;;;;;17.87;54.50;101708.13;5078948;27;45523;-67
2022/10/12 19:01:31;;;;;;;;;19.33;15.00;;;;;17.78;54.43;101692.31;5078144;27;45701;-70
2022/10/12 19:03:59;;;;;;;;;20.67;16.33;;;;;17.82;54.47;101698.47;5074372;27;46137;-66
2022/10/12 19:06:28;;;;;;;;;22.67;17.00;;;;;17.90;55.25;101705.44;5078979;27;45465;-68
2022/10/12 19:08:55;;;;;;;;;19.67;17.00;;;;;17.98;55.26;101705.31;5068262;27;45896;-70
2022/10/12 19:11:23;;;;;;;;;17.67;16.00;;;;;17.96;55.97;101691.22;5043780;27;46126;-68
2022/10/12 19:14:00;;;;;;;;;19.00;14.33;;;;;18.01;56.49;101698.22;5069050;27;46296;-69
2022/10/12 19:16:27;;;;;;;;;16.67;14.67;;;;;18.04;55.14;101699.09;5074152;27;45319;-68
2022/10/12 19:19:03;;;;;;;;;20.33;16.67;;;;;18.05;54.92;101684.91;5072115;27;45575;-68
2022/10/12 19:21:30;;;;;;;;;22.67;20.00;;;;;17.97;54.95;101693.84;5075549;27;45460;-66
2022/10/12 19:23:56;;;;;;;;;23.67;18.33;;;;;17.97;55.36;101696.50;5074419;27;46182;-68
2022/10/12 19:26:25;;;;;;;;;20.67;17.33;;;;;18.01;55.69;101703.53;5072033;27;45433;-67
2022/10/12 19:28:54;;;;;;;;;23.00;15.00;;;;;18.01;54.68;101705.31;5070325;27;45603;-68
2022/10/12 19:31:25;;;;;;;;;18.00;18.00;;;;;18.08;55.57;101706.06;5072162;27;45480;-66
2022/10/12 19:34:04;;;;;;;;;20.67;18.00;;;;;18.04;54.73;101707.03;5071627;27;46278;-69
2022/10/12 19:36:29;;;;;;;;;20.00;16.00;;;;;18.07;54.86;101704.34;5076291;27;45447;-67
2022/10/12 19:39:03;;;;;;;;;16.00;14.67;;;;;17.91;55.29;101693.94;5072367;28;46653;-67
2022/10/12 19:41:29;;;;;;;;;16.00;14.33;;;;;17.88;55.37;101695.75;5071881;27;45972;-67
2022/10/12 19:43:59;;;;;;;;;16.33;13.67;;;;;17.91;55.08;101696.56;5071372;27;45904;-68
2022/10/12 19:46:26;;;;;;;;;15.00;14.67;;;;;17.91;54.51;101701.00;5071629;27;45596;-66
2022/10/12 19:48:53;;;;;;;;;16.67;14.00;;;;;17.88;55.00;101691.31;5071436;27;45371;-68
2022/10/12 19:51:21;;;;;;;;;19.33;14.67;;;;;17.72;55.20;101666.75;5069403;27;45339;-67
2022/10/12 19:53:47;;;;;;;;;10.33;7.00;;;;;17.75;55.02;101692.38;5057845;28;46134;-67
2022/10/12 19:56:19;;;;;;;;;18.33;15.33;;;;;17.69;55.26;101677.41;5049728;28;46010;-67
2022/10/12 19:58:46;;;;;;;;;17.33;14.67;;;;;17.70;55.51;101687.13;5049217;28;45493;-67
2022/10/12 20:01:15;;;;;;;;;21.00;16.00;;;;;17.65;55.36;101686.28;5051197;28;45774;-67
2022/10/12 20:03:41;;;;;;;;;16.33;15.33;;;;;17.62;55.17;101694.28;5050889;28;45922;-67
2022/10/12 20:06:08;;;;;;;;;15.33;15.33;;;;;17.64;55.83;101688.97;5070189;27;45591;-67
2022/10/12 20:08:37;;;;;;;;;20.33;15.67;;;;;17.52;55.43;101671.44;5051808;28;45439;-68
2022/10/12 20:11:03;;;;;;;;;18.00;13.33;;;;;17.66;55.54;101703.94;5050810;28;45354;-69
2022/10/12 20:13:29;;;;;;;;;15.67;15.33;;;;;17.58;55.47;101688.16;5049795;28;45893;-69
2022/10/12 20:15:55;;;;;;;;;20.33;17.33;;;;;17.61;56.03;101692.53;5053583;28;45689;-67
2022/10/12 20:18:22;;;;;;;;;17.67;17.67;;;;;17.59;56.34;101686.38;5062311;28;45473;-67
2022/10/12 20:20:48;;;;;;;;;15.67;15.00;;;;;17.63;56.28;101703.09;5031929;28;45425;-68
2022/10/12 20:23:15;;;;;;;;;15.33;15.33;;;;;17.61;56.04;101692.53;5037700;28;45971;-68
2022/10/12 20:25:47;;;;;;;;;15.67;15.67;;;;;17.55;56.00;101696.09;5037336;28;45490;-68
2022/10/12 20:28:14;;;;;;;;;16.67;14.33;;;;;17.48;56.02;101682.97;5042045;28;46474;-68
2022/10/12 20:30:40;;;;;;;;;20.00;15.67;;;;;17.48;55.75;101691.78;5054145;28;45374;-68
2022/10/12 20:33:07;;;;;;;;;20.33;16.33;;;;;17.50;56.04;101687.34;5035807;28;46118;-69
2022/10/12 20:35:33;;;;;;;;;20.67;18.00;;;;;17.49;55.82;101684.72;5049447;28;46012;-68
2022/10/12 20:37:59;;;;;;;;;18.67;15.67;;;;;17.41;56.00;101678.63;5057337;28;45671;-69
2022/10/12 20:40:25;;;;;;;;;18.00;15.67;;;;;17.36;55.88;101671.59;5051603;28;45958;-69
2022/10/12 20:42:51;;;;;;;;;18.00;15.00;;;;;17.35;56.09;101683.09;5053819;28;46540;-67
2022/10/12 20:45:18;;;;;;;;;16.33;14.67;;;;;17.32;55.93;101682.25;5056590;28;45491;-71
2022/10/12 20:47:44;;;;;;;;;18.33;16.67;;;;;17.35;56.41;101688.41;5031654;28;46644;-67
2022/10/12 20:50:11;;;;;;;;;19.00;18.33;;;;;17.36;56.45;101681.31;5046260;28;45655;-67
2022/10/12 20:52:37;;;;;;;;;15.67;13.00;;;;;17.18;56.48;101645.34;5072709;28;46137;-68
2022/10/12 20:55:03;;;;;;;;;21.33;21.33;;;;;17.26;56.43;101684.97;5070062;28;45535;-69
2022/10/12 20:57:29;;;;;;;;;20.67;20.00;;;;;17.17;56.52;101675.34;5070028;27;45460;-67
2022/10/12 20:59:55;;;;;;;;;18.00;16.33;;;;;17.25;56.33;101685.84;5070854;27;45542;-67
2022/10/12 21:02:20;;;;;;;;;20.67;20.33;;;;;17.29;56.39;101695.53;5070186;27;46166;-68
2022/10/12 21:04:48;;;;;;;;;21.00;17.33;;;;;17.32;56.62;101695.47;5069489;27;45589;-68
2022/10/12 21:07:16;;;;;;;;;20.00;16.67;;;;;17.34;56.38;101705.16;5074898;27;45291;-68
2022/10/12 21:09:43;;;;;;;;;21.00;17.67;;;;;17.29;56.76;101691.09;5069685;27;45507;-67
2022/10/12 21:12:09;;;;;;;;;24.33;19.67;;;;;17.39;56.50;101694.53;5065986;28;47398;-69
2022/10/12 21:14:35;;;;;;;;;17.33;13.33;;;;;17.39;56.49;101689.22;5070823;27;45390;-68
2022/10/12 21:17:00;;;;;;;;;16.33;15.33;;;;;17.38;56.31;101676.91;5069847;27;45476;-68
2022/10/12 21:19:26;;;;;;;;;20.00;15.67;;;;;17.43;56.25;101679.50;5071661;28;45644;-67
2022/10/12 21:21:52;;;;;;;;;20.67;15.00;;;;;17.40;56.20;101679.53;5069794;27;46562;-66
2022/10/12 21:24:18;;;;;;;;;16.00;13.00;;;;;17.41;56.29;101676.84;5070764;27;45938;-67
2022/10/12 21:26:43;;;;;;;;;20.00;17.00;;;;;17.31;56.12;101684.03;5073039;27;45883;-67
2022/10/12 21:29:10;;;;;;;;;16.00;15.67;;;;;17.34;55.99;101675.16;5075135;27;45321;-67
2022/10/12 21:31:36;;;;;;;;;15.67;13.67;;;;;17.36;56.38;101678.69;5072972;27;46630;-67